createdAt,value
2022-08-31T00:00:25.623Z,72634.31
2022-08-31T00:01:12.894Z,72630.34
2022-08-31T00:02:00.254Z,72626.34
2022-08-31T00:02:47.642Z,72638.31
2022-08-31T00:03:34.957Z,72646.31
2022-08-31T00:04:11.949Z,72638.31
2022-08-31T00:04:44.366Z,72638.31
2022-08-31T00:05:17.057Z,72636.31
2022-08-31T00:05:52.493Z,72634.31
2022-08-31T00:06:24.761Z,72642.31
2022-08-31T00:06:57.106Z,72638.31
2022-08-31T00:07:34.940Z,72634.31
2022-08-31T00:08:07.528Z,72634.31
2022-08-31T00:08:39.856Z,72644.31
2022-08-31T00:09:14.777Z,72638.31
2022-08-31T00:09:47.179Z,72638.31
2022-08-31T00:10:22.305Z,72640.31
2022-08-31T00:11:10.731Z,72638.31
2022-08-31T00:11:43.050Z,72640.31
2022-08-31T00:12:15.813Z,72644.31
2022-08-31T00:12:52.335Z,72634.31
2022-08-31T00:13:30.306Z,72634.31
2022-08-31T00:14:12.476Z,72634.31
2022-08-31T00:14:49.175Z,72638.31
2022-08-31T00:15:23.829Z,72636.31
2022-08-31T00:15:57.987Z,72638.31
2022-08-31T00:16:35.086Z,72634.31
2022-08-31T00:17:07.769Z,72634.31
2022-08-31T00:17:40.787Z,72634.31
2022-08-31T00:18:15.949Z,72638.31
2022-08-31T00:18:52.742Z,72636.31
2022-08-31T00:19:25.204Z,72638.31
2022-08-31T00:19:57.521Z,72638.31
2022-08-31T00:20:34.836Z,72638.31
2022-08-31T00:21:07.358Z,72636.31
2022-08-31T00:21:39.878Z,72638.31
2022-08-31T00:22:14.810Z,72634.31
2022-08-31T00:22:47.140Z,72634.31
2022-08-31T00:23:19.660Z,72634.31
2022-08-31T00:23:55.123Z,72634.31
2022-08-31T00:24:27.801Z,72630.34
2022-08-31T00:25:00.166Z,72634.31
2022-08-31T00:25:35.620Z,72634.31
2022-08-31T00:26:07.922Z,72632.31
2022-08-31T00:26:41.073Z,72634.31
2022-08-31T00:27:16.349Z,72634.31
2022-08-31T00:27:48.712Z,72630.34
2022-08-31T00:28:21.110Z,72630.34
2022-08-31T00:28:56.622Z,72632.31
2022-08-31T00:29:31.582Z,72632.31
2022-08-31T00:30:04.522Z,72638.31
2022-08-31T00:30:39.693Z,72634.31
2022-08-31T00:31:12.354Z,72634.31
2022-08-31T00:31:47.342Z,72630.34
2022-08-31T00:32:21.402Z,72634.31
2022-08-31T00:32:57.025Z,72638.31
2022-08-31T00:33:33.382Z,72634.31
2022-08-31T00:34:05.917Z,72636.31
2022-08-31T00:34:38.250Z,72638.31
2022-08-31T00:35:13.194Z,72634.31
2022-08-31T00:35:45.733Z,72638.31
2022-08-31T00:36:18.569Z,72638.31
2022-08-31T00:36:54.769Z,72634.31
2022-08-31T00:37:27.106Z,72638.31
2022-08-31T00:37:59.689Z,72634.31
2022-08-31T00:38:32.109Z,72640.31
2022-08-31T00:39:08.010Z,72640.31
2022-08-31T00:39:40.734Z,72634.31
2022-08-31T00:40:13.816Z,72636.31
2022-08-31T00:40:50.450Z,72636.31
2022-08-31T00:41:24.715Z,72638.31
2022-08-31T00:41:57.221Z,72636.31
2022-08-31T00:42:32.198Z,72634.31
2022-08-31T00:43:04.505Z,72636.31
2022-08-31T00:43:41.215Z,72634.31
2022-08-31T00:44:16.213Z,72634.31
2022-08-31T00:44:52.145Z,72636.31
2022-08-31T00:45:24.689Z,72634.31
2022-08-31T00:45:59.714Z,72634.31
2022-08-31T00:46:35.345Z,72630.34
2022-08-31T00:47:10.490Z,72634.31
2022-08-31T00:47:42.996Z,72632.31
2022-08-31T00:48:15.373Z,72632.31
2022-08-31T00:48:56.412Z,72634.31
2022-08-31T00:49:31.776Z,72630.34
2022-08-31T00:50:05.144Z,72630.34
2022-08-31T00:50:40.065Z,72638.31
2022-08-31T00:51:13.158Z,72634.31
2022-08-31T00:51:56.185Z,72634.31
2022-08-31T00:52:33.394Z,72634.31
2022-08-31T00:53:10.181Z,72634.31
2022-08-31T00:53:45.239Z,72634.31
2022-08-31T00:54:22.376Z,72638.31
2022-08-31T00:54:56.644Z,72630.34
2022-08-31T00:55:31.434Z,72626.34
2022-08-31T00:56:06.873Z,72630.34
2022-08-31T00:56:39.994Z,72636.31
2022-08-31T00:57:12.868Z,72634.31
2022-08-31T00:57:50.699Z,72628.34
2022-08-31T00:58:23.161Z,72634.31
2022-08-31T00:58:55.740Z,72630.34
2022-08-31T00:59:30.937Z,72634.31
2022-08-31T01:00:09.515Z,72630.34
2022-08-31T01:00:42.917Z,72630.34
2022-08-31T01:01:19.155Z,72632.31
2022-08-31T01:01:51.977Z,72626.34
2022-08-31T01:02:27.096Z,72630.34
2022-08-31T01:03:03.940Z,72626.34
2022-08-31T01:03:36.381Z,72630.34
2022-08-31T01:04:11.378Z,72626.34
2022-08-31T01:04:44.001Z,72628.34
2022-08-31T01:05:17.999Z,72632.31
2022-08-31T01:05:53.622Z,72630.34
2022-08-31T01:06:26.885Z,72632.31
2022-08-31T01:06:59.681Z,72630.34
2022-08-31T01:07:32.706Z,72636.31
2022-08-31T01:08:08.766Z,72634.31
2022-08-31T01:08:42.163Z,72636.31
2022-08-31T01:09:14.953Z,72632.31
2022-08-31T01:09:55.848Z,72636.31
2022-08-31T01:10:30.462Z,72634.31
2022-08-31T01:11:02.805Z,72630.34
2022-08-31T01:11:38.102Z,72628.34
2022-08-31T01:12:11.071Z,72632.31
2022-08-31T01:12:45.488Z,72630.34
2022-08-31T01:13:18.191Z,72634.31
2022-08-31T01:13:54.891Z,72634.31
2022-08-31T01:14:27.369Z,72630.34
2022-08-31T01:15:00.570Z,72630.34
2022-08-31T01:15:36.442Z,72632.31
2022-08-31T01:16:16.110Z,72632.31
2022-08-31T01:16:51.986Z,72634.31
2022-08-31T01:17:24.453Z,72632.31
2022-08-31T01:18:02.790Z,72638.31
2022-08-31T01:18:35.633Z,72636.31
2022-08-31T01:19:14.177Z,72640.31
2022-08-31T01:19:54.453Z,72638.31
2022-08-31T01:20:30.560Z,72638.31
2022-08-31T01:21:13.238Z,72638.31
2022-08-31T01:21:52.264Z,72638.31
2022-08-31T01:22:31.370Z,72632.31
2022-08-31T01:23:10.588Z,72638.31
2022-08-31T01:23:47.546Z,72638.31
2022-08-31T01:24:20.677Z,72636.31
2022-08-31T01:24:53.445Z,72638.31
2022-08-31T01:25:33.642Z,72642.31
2022-08-31T01:26:07.753Z,72642.31
2022-08-31T01:26:42.920Z,72642.31
2022-08-31T01:27:24.830Z,72640.31
2022-08-31T01:27:59.526Z,72636.31
2022-08-31T01:28:34.510Z,72638.31
2022-08-31T01:29:07.762Z,72644.31
2022-08-31T01:29:40.350Z,72642.31
2022-08-31T01:30:18.317Z,72640.31
2022-08-31T01:31:01.199Z,72642.31
2022-08-31T01:31:35.865Z,72650.28
2022-08-31T01:32:11.849Z,72646.31
2022-08-31T01:32:44.197Z,72646.31
2022-08-31T01:33:16.765Z,72642.31
2022-08-31T01:33:52.498Z,72642.31
2022-08-31T01:34:25.074Z,72640.31
2022-08-31T01:35:01.035Z,72646.31
2022-08-31T01:35:34.635Z,72644.31
2022-08-31T01:36:11.116Z,72638.31
2022-08-31T01:36:51.253Z,72638.31
2022-08-31T01:37:29.514Z,72634.31
2022-08-31T01:38:02.830Z,72638.31
2022-08-31T01:38:43.414Z,72634.31
2022-08-31T01:39:15.733Z,72638.31
2022-08-31T01:39:49.850Z,72638.31
2022-08-31T01:40:28.404Z,72638.31
2022-08-31T01:41:02.179Z,72646.31
2022-08-31T01:41:35.276Z,72640.31
2022-08-31T01:42:10.382Z,72638.31
2022-08-31T01:42:42.730Z,72640.31
2022-08-31T01:43:15.094Z,72646.31
2022-08-31T01:43:50.029Z,72640.31
2022-08-31T01:44:24.079Z,72644.31
2022-08-31T01:44:56.402Z,72642.31
2022-08-31T01:45:31.996Z,72642.31
2022-08-31T01:46:08.956Z,72642.31
2022-08-31T01:46:46.218Z,72636.31
2022-08-31T01:47:18.625Z,72642.31
2022-08-31T01:47:53.510Z,72642.31
2022-08-31T01:48:28.458Z,72640.31
2022-08-31T01:49:01.082Z,72640.31
2022-08-31T01:49:33.438Z,72642.31
2022-08-31T01:50:09.473Z,72646.31
2022-08-31T01:50:41.933Z,72638.31
2022-08-31T01:51:16.321Z,72646.31
2022-08-31T01:51:52.962Z,72646.31
2022-08-31T01:52:27.734Z,72646.31
2022-08-31T01:53:00.857Z,72646.31
2022-08-31T01:53:37.661Z,72646.31
2022-08-31T01:54:13.678Z,72646.31
2022-08-31T01:54:46.182Z,72638.31
2022-08-31T01:55:21.198Z,72638.31
2022-08-31T01:55:54.026Z,72638.31
2022-08-31T01:56:30.870Z,72646.31
2022-08-31T01:57:08.259Z,72644.31
2022-08-31T01:58:02.104Z,72646.31
2022-08-31T01:58:55.553Z,72650.28
2022-08-31T01:59:52.397Z,72648.28
2022-08-31T02:00:50.814Z,72646.31
2022-08-31T02:01:33.460Z,72642.31
2022-08-31T02:02:09.855Z,72638.31
2022-08-31T02:02:43.203Z,72646.31
2022-08-31T02:03:16.792Z,72640.31
2022-08-31T02:03:49.162Z,72642.31
2022-08-31T02:04:26.977Z,72646.31
2022-08-31T02:05:01.265Z,72640.31
2022-08-31T02:05:33.863Z,72642.31
2022-08-31T02:06:12.430Z,72638.31
2022-08-31T02:06:49.539Z,72642.31
2022-08-31T02:07:23.241Z,72646.31
2022-08-31T02:07:58.549Z,72642.31
2022-08-31T02:08:30.858Z,72646.31
2022-08-31T02:09:06.498Z,72640.31
2022-08-31T02:09:44.087Z,72644.31
2022-08-31T02:10:16.452Z,72644.31
2022-08-31T02:10:49.822Z,72646.31
2022-08-31T02:11:24.713Z,72644.31
2022-08-31T02:11:57.035Z,72636.31
2022-08-31T02:12:31.937Z,72638.31
2022-08-31T02:13:04.613Z,72634.31
2022-08-31T02:13:37.045Z,72640.31
2022-08-31T02:14:12.686Z,72638.31
2022-08-31T02:14:45.026Z,72638.31
2022-08-31T02:15:17.758Z,72646.31
2022-08-31T02:15:53.055Z,72638.31
2022-08-31T02:16:26.183Z,72638.31
2022-08-31T02:16:58.625Z,72632.31
2022-08-31T02:17:31.535Z,72638.31
2022-08-31T02:18:06.841Z,72642.31
2022-08-31T02:18:39.941Z,72638.31
2022-08-31T02:19:12.358Z,72636.31
2022-08-31T02:19:47.863Z,72634.31
2022-08-31T02:20:20.773Z,72638.31
2022-08-31T02:20:53.261Z,72630.34
2022-08-31T02:21:28.470Z,72634.31
2022-08-31T02:22:00.883Z,72628.34
2022-08-31T02:22:33.341Z,72630.34
2022-08-31T02:23:08.333Z,72630.34
2022-08-31T02:23:40.770Z,72630.34
2022-08-31T02:24:13.186Z,72630.34
2022-08-31T02:24:50.698Z,72630.34
2022-08-31T02:25:23.097Z,72630.34
2022-08-31T02:25:56.010Z,72630.34
2022-08-31T02:26:31.062Z,72630.34
2022-08-31T02:27:03.592Z,72628.34
2022-08-31T02:27:37.037Z,72626.34
2022-08-31T02:28:14.794Z,72630.34
2022-08-31T02:28:47.310Z,72622.34
2022-08-31T02:29:19.677Z,72630.34
2022-08-31T02:29:54.643Z,72630.34
2022-08-31T02:30:28.822Z,72626.34
2022-08-31T02:31:04.099Z,72630.34
2022-08-31T02:31:45.289Z,72622.34
2022-08-31T02:32:20.234Z,72626.34
2022-08-31T02:32:53.124Z,72624.34
2022-08-31T02:33:28.621Z,72626.34
2022-08-31T02:34:01.235Z,72630.34
2022-08-31T02:34:33.623Z,72630.34
2022-08-31T02:35:09.719Z,72626.34
2022-08-31T02:35:42.829Z,72626.34
2022-08-31T02:36:15.317Z,72630.34
2022-08-31T02:36:50.409Z,72626.34
2022-08-31T02:37:23.109Z,72626.34
2022-08-31T02:37:55.550Z,72630.34
2022-08-31T02:38:30.761Z,72626.34
2022-08-31T02:39:03.255Z,72628.34
2022-08-31T02:39:38.638Z,72628.34
2022-08-31T02:40:16.781Z,72634.31
2022-08-31T02:40:49.480Z,72634.31
2022-08-31T02:41:22.526Z,72626.34
2022-08-31T02:41:59.387Z,72630.34
2022-08-31T02:42:40.802Z,72634.31
2022-08-31T02:43:24.688Z,72626.34
2022-08-31T02:44:01.926Z,72630.34
2022-08-31T02:44:34.408Z,72634.31
2022-08-31T02:45:09.144Z,72632.31
2022-08-31T02:45:44.334Z,72630.34
2022-08-31T02:46:28.258Z,72632.31
2022-08-31T02:47:19.784Z,72630.34
2022-08-31T02:48:04.711Z,72634.31
2022-08-31T02:48:45.242Z,72630.34
2022-08-31T02:49:22.214Z,72630.34
2022-08-31T02:49:54.890Z,72630.34
2022-08-31T02:50:30.014Z,72630.34
2022-08-31T02:51:06.388Z,72636.31
2022-08-31T02:51:40.194Z,72630.34
2022-08-31T02:52:15.349Z,72630.34
2022-08-31T02:52:48.031Z,72630.34
2022-08-31T02:53:22.822Z,72630.34
2022-08-31T02:53:58.165Z,72626.34
2022-08-31T02:54:30.566Z,72632.31
2022-08-31T02:55:03.595Z,72630.34
2022-08-31T02:55:41.152Z,72628.34
2022-08-31T02:56:14.384Z,72634.31
2022-08-31T02:56:46.718Z,72628.34
2022-08-31T02:57:24.998Z,72634.31
2022-08-31T02:57:57.394Z,72632.31
2022-08-31T02:58:30.736Z,72634.31
2022-08-31T02:59:05.759Z,72636.31
2022-08-31T02:59:38.159Z,72634.31
2022-08-31T03:00:12.163Z,72630.34
2022-08-31T03:00:49.386Z,72630.34
2022-08-31T03:01:22.759Z,72628.34
2022-08-31T03:01:55.895Z,72632.31
2022-08-31T03:02:32.170Z,72630.34
2022-08-31T03:03:05.480Z,72632.31
2022-08-31T03:03:38.845Z,72634.31
2022-08-31T03:04:13.905Z,72634.31
2022-08-31T03:04:46.226Z,72630.34
2022-08-31T03:05:22.280Z,72634.31
2022-08-31T03:05:57.167Z,72634.31
2022-08-31T03:06:30.077Z,72634.31
2022-08-31T03:07:05.216Z,72632.31
2022-08-31T03:07:38.313Z,72636.31
2022-08-31T03:08:10.653Z,72638.31
2022-08-31T03:08:45.780Z,72638.31
2022-08-31T03:09:18.951Z,72642.31
2022-08-31T03:09:51.310Z,72644.31
2022-08-31T03:10:28.161Z,72646.31
2022-08-31T03:11:03.801Z,72648.28
2022-08-31T03:11:36.417Z,72638.31
2022-08-31T03:12:11.786Z,72646.31
2022-08-31T03:12:44.679Z,72644.31
2022-08-31T03:13:17.067Z,72642.31
2022-08-31T03:13:57.809Z,72646.31
2022-08-31T03:14:30.951Z,72640.31
2022-08-31T03:15:03.554Z,72642.31
2022-08-31T03:15:38.474Z,72642.31
2022-08-31T03:16:14.284Z,72638.31
2022-08-31T03:16:47.610Z,72646.31
2022-08-31T03:17:27.866Z,72642.31
2022-08-31T03:18:00.214Z,72646.31
2022-08-31T03:18:33.064Z,72646.31
2022-08-31T03:19:08.049Z,72646.31
2022-08-31T03:19:41.655Z,72638.31
2022-08-31T03:20:14.818Z,72646.31
2022-08-31T03:20:49.769Z,72646.31
2022-08-31T03:21:22.092Z,72636.31
2022-08-31T03:21:56.186Z,72646.31
2022-08-31T03:22:30.093Z,72638.31
2022-08-31T03:23:05.898Z,72646.31
2022-08-31T03:23:38.288Z,72646.31
2022-08-31T03:24:13.259Z,72644.31
2022-08-31T03:24:45.594Z,72648.28
2022-08-31T03:25:18.241Z,72646.31
2022-08-31T03:25:53.204Z,72644.31
2022-08-31T03:26:28.241Z,72644.31
2022-08-31T03:27:00.550Z,72648.28
2022-08-31T03:27:37.306Z,72646.31
2022-08-31T03:28:09.880Z,72646.31
2022-08-31T03:28:45.477Z,72646.31
2022-08-31T03:29:52.413Z,72648.28
2022-08-31T03:30:31.357Z,72650.28
2022-08-31T03:31:18.076Z,72648.28
2022-08-31T03:31:50.530Z,72650.28
2022-08-31T03:32:22.986Z,72648.28
2022-08-31T03:33:02.677Z,72648.28
2022-08-31T03:33:36.762Z,72646.31
2022-08-31T03:34:09.357Z,72642.31
2022-08-31T03:34:44.350Z,72648.28
2022-08-31T03:35:18.212Z,72646.31
2022-08-31T03:35:53.387Z,72644.31
2022-08-31T03:36:28.426Z,72650.28
2022-08-31T03:37:00.778Z,72646.31
2022-08-31T03:37:34.071Z,72648.28
2022-08-31T03:38:10.567Z,72648.28
2022-08-31T03:38:44.250Z,72654.28
2022-08-31T03:39:16.694Z,72654.28
2022-08-31T03:39:51.824Z,72650.28
2022-08-31T03:40:24.302Z,72652.28
2022-08-31T03:40:56.701Z,72654.28
2022-08-31T03:41:34.374Z,72646.31
2022-08-31T03:42:07.222Z,72654.28
2022-08-31T03:42:40.433Z,72650.28
2022-08-31T03:43:17.604Z,72650.28
2022-08-31T03:43:50.401Z,72640.31
2022-08-31T03:44:23.625Z,72640.31
2022-08-31T03:44:56.437Z,72646.31
2022-08-31T03:45:36.515Z,72642.31
2022-08-31T03:46:12.018Z,72646.31
2022-08-31T03:46:50.470Z,72650.28
2022-08-31T03:47:25.458Z,72650.28
2022-08-31T03:48:00.938Z,72642.31
2022-08-31T03:48:33.418Z,72644.31
2022-08-31T03:49:12.513Z,72646.31
2022-08-31T03:49:51.437Z,72650.28
2022-08-31T03:50:44.178Z,72648.28
2022-08-31T03:51:22.043Z,72648.28
2022-08-31T03:51:54.434Z,72652.28
2022-08-31T03:52:31.617Z,72654.28
2022-08-31T03:53:13.815Z,72650.28
2022-08-31T03:53:50.317Z,72644.31
2022-08-31T03:54:24.553Z,72652.28
2022-08-31T03:54:56.897Z,72654.28
2022-08-31T03:55:31.923Z,72654.28
2022-08-31T03:56:07.172Z,72652.28
2022-08-31T03:56:43.850Z,72650.28
2022-08-31T03:57:18.798Z,72654.28
2022-08-31T03:57:51.402Z,72654.28
2022-08-31T03:58:23.967Z,72658.28
2022-08-31T03:58:59.046Z,72652.28
2022-08-31T03:59:58.217Z,72654.28
2022-08-31T04:00:47.990Z,72656.28
2022-08-31T04:01:40.408Z,72658.28
2022-08-31T04:02:37.505Z,72658.28
2022-08-31T04:03:30.182Z,72658.28
2022-08-31T04:04:23.698Z,72650.28
2022-08-31T04:05:23.438Z,72650.28
2022-08-31T04:06:17.037Z,72656.28
2022-08-31T04:07:22.865Z,72656.28
2022-08-31T04:08:17.726Z,72654.28
2022-08-31T04:08:50.081Z,72654.28
2022-08-31T04:09:56.880Z,72658.28
2022-08-31T04:11:07.363Z,72654.28
2022-08-31T04:12:11.430Z,72660.28
2022-08-31T04:13:06.263Z,72658.28
2022-08-31T04:14:04.214Z,72658.28
2022-08-31T04:14:55.577Z,72662.28
2022-08-31T04:15:53.876Z,72660.28
2022-08-31T04:16:46.493Z,72658.28
2022-08-31T04:17:40.234Z,72658.28
2022-08-31T04:18:32.546Z,72656.28
2022-08-31T04:19:08.866Z,72662.28
2022-08-31T04:19:48.882Z,72660.28
2022-08-31T04:20:44.065Z,72656.28
2022-08-31T04:21:20.410Z,72654.28
2022-08-31T04:21:56.131Z,72658.28
2022-08-31T04:22:31.813Z,72658.28
2022-08-31T04:23:35.681Z,72658.28
2022-08-31T04:24:10.763Z,72658.28
2022-08-31T04:24:43.397Z,72654.28
2022-08-31T04:25:18.173Z,72664.25
2022-08-31T04:25:56.490Z,72660.28
2022-08-31T04:26:31.536Z,72656.28
2022-08-31T04:27:09.033Z,72658.28
2022-08-31T04:27:43.966Z,72658.28
2022-08-31T04:28:16.345Z,72658.28
2022-08-31T04:28:50.829Z,72662.28
2022-08-31T04:29:25.943Z,72658.28
2022-08-31T04:29:58.893Z,72660.28
2022-08-31T04:30:31.330Z,72660.28
2022-08-31T04:31:10.215Z,72660.28
2022-08-31T04:31:43.324Z,72664.25
2022-08-31T04:32:17.136Z,72664.25
2022-08-31T04:32:52.226Z,72664.25
2022-08-31T04:33:24.541Z,72662.28
2022-08-31T04:33:58.338Z,72662.28
2022-08-31T04:34:30.718Z,72660.28
2022-08-31T04:35:05.754Z,72662.28
2022-08-31T04:35:40.213Z,72662.28
2022-08-31T04:36:15.809Z,72660.28
2022-08-31T04:36:50.825Z,72662.28
2022-08-31T04:37:23.292Z,72662.28
2022-08-31T04:37:56.793Z,72662.28
2022-08-31T04:38:33.117Z,72662.28
2022-08-31T04:39:07.108Z,72660.28
2022-08-31T04:39:50.742Z,72662.28
2022-08-31T04:40:27.110Z,72662.28
2022-08-31T04:41:04.535Z,72662.28
2022-08-31T04:41:38.403Z,72666.25
2022-08-31T04:42:17.343Z,72664.25
2022-08-31T04:42:49.991Z,72666.25
2022-08-31T04:43:26.119Z,72662.28
2022-08-31T04:44:02.494Z,72666.25
2022-08-31T04:44:35.042Z,72668.25
2022-08-31T04:45:09.374Z,72666.25
2022-08-31T04:45:42.638Z,72666.25
2022-08-31T04:46:22.681Z,72662.28
2022-08-31T04:46:55.484Z,72668.25
2022-08-31T04:47:27.886Z,72662.28
2022-08-31T04:48:03.255Z,72662.28
2022-08-31T04:48:36.308Z,72662.28
2022-08-31T04:49:11.065Z,72666.25
2022-08-31T04:49:46.031Z,72658.28
2022-08-31T04:50:18.454Z,72662.28
2022-08-31T04:51:24.454Z,72666.25
2022-08-31T04:51:57.338Z,72666.25
2022-08-31T04:52:30.012Z,72664.25
2022-08-31T04:53:05.708Z,72666.25
2022-08-31T04:53:38.260Z,72668.25
2022-08-31T04:54:12.651Z,72666.25
2022-08-31T04:54:51.225Z,72670.25
2022-08-31T04:55:23.663Z,72670.25
2022-08-31T04:55:59.986Z,72674.25
2022-08-31T04:56:40.499Z,72670.25
2022-08-31T04:57:15.595Z,72674.25
2022-08-31T04:57:47.910Z,72678.22
2022-08-31T04:58:26.556Z,72674.25
2022-08-31T04:59:01.049Z,72674.25
2022-08-31T04:59:38.174Z,72676.25
2022-08-31T05:00:33.890Z,72676.25
2022-08-31T05:01:42.814Z,72678.22
2022-08-31T05:02:39.322Z,72676.25
2022-08-31T05:03:21.206Z,72676.25
2022-08-31T05:03:56.833Z,72674.25
2022-08-31T05:04:29.654Z,72674.25
2022-08-31T05:05:06.198Z,72678.22
2022-08-31T05:05:39.221Z,72674.25
2022-08-31T05:06:14.271Z,72674.25
2022-08-31T05:06:49.798Z,72674.25
2022-08-31T05:07:22.120Z,72674.25
2022-08-31T05:07:54.602Z,72674.25
2022-08-31T05:08:30.837Z,72662.28
2022-08-31T05:09:06.893Z,72658.28
2022-08-31T05:09:39.360Z,72654.28
2022-08-31T05:10:15.488Z,72648.28
2022-08-31T05:10:48.750Z,72638.31
2022-08-31T05:11:24.974Z,72638.31
2022-08-31T05:12:00.590Z,72636.31
2022-08-31T05:12:36.490Z,72638.31
2022-08-31T05:13:09.594Z,72630.34
2022-08-31T05:13:45.244Z,72634.31
2022-08-31T05:14:18.713Z,72634.31
2022-08-31T05:14:59.126Z,72630.34
2022-08-31T05:15:33.642Z,72630.34
2022-08-31T05:16:07.452Z,72634.31
2022-08-31T05:16:44.622Z,72628.34
2022-08-31T05:17:17.386Z,72630.34
2022-08-31T05:17:49.763Z,72630.34
2022-08-31T05:18:26.409Z,72630.34
2022-08-31T05:19:02.310Z,72630.34
2022-08-31T05:19:40.969Z,72626.34
2022-08-31T05:20:13.689Z,72622.34
2022-08-31T05:20:46.802Z,72630.34
2022-08-31T05:21:28.302Z,72626.34
2022-08-31T05:22:00.657Z,72626.34
2022-08-31T05:22:33.902Z,72626.34
2022-08-31T05:23:10.670Z,72622.34
2022-08-31T05:23:44.249Z,72622.34
2022-08-31T05:24:21.747Z,72626.34
2022-08-31T05:24:54.106Z,72622.34
2022-08-31T05:25:26.677Z,72626.34
2022-08-31T05:26:01.671Z,72622.34
2022-08-31T05:26:35.957Z,72622.34
2022-08-31T05:27:13.001Z,72626.34
2022-08-31T05:27:48.889Z,72626.34
2022-08-31T05:28:23.709Z,72622.34
2022-08-31T05:28:59.458Z,72610.38
2022-08-31T05:29:31.931Z,72608.38
2022-08-31T05:30:27.174Z,72622.34
2022-08-31T05:31:09.977Z,72622.34
2022-08-31T05:31:52.464Z,72622.34
2022-08-31T05:32:25.408Z,72618.34
2022-08-31T05:32:59.037Z,72618.34
2022-08-31T05:33:34.145Z,72616.38
2022-08-31T05:34:08.006Z,72622.34
2022-08-31T05:34:46.690Z,72614.38
2022-08-31T05:35:19.335Z,72618.34
2022-08-31T05:35:51.775Z,72618.34
2022-08-31T05:36:26.898Z,72618.34
2022-08-31T05:36:59.283Z,72618.34
2022-08-31T05:37:34.971Z,72618.34
2022-08-31T05:38:09.926Z,72620.34
2022-08-31T05:38:42.834Z,72622.34
2022-08-31T05:39:17.502Z,72622.34
2022-08-31T05:39:52.458Z,72618.34
2022-08-31T05:40:24.862Z,72620.34
2022-08-31T05:40:58.820Z,72618.34
2022-08-31T05:41:33.893Z,72618.34
2022-08-31T05:42:07.558Z,72624.34
2022-08-31T05:42:39.906Z,72620.34
2022-08-31T05:43:18.132Z,72618.34
2022-08-31T05:43:50.797Z,72630.34
2022-08-31T05:44:28.825Z,72626.34
2022-08-31T05:45:02.117Z,72622.34
2022-08-31T05:45:34.450Z,72626.34
2022-08-31T05:46:10.764Z,72626.34
2022-08-31T05:46:44.245Z,72630.34
2022-08-31T05:47:16.709Z,72628.34
2022-08-31T05:47:52.027Z,72630.34
2022-08-31T05:48:29.998Z,72628.34
2022-08-31T05:49:06.326Z,72628.34
2022-08-31T05:49:40.973Z,72630.34
2022-08-31T05:50:16.353Z,72630.34
2022-08-31T05:50:49.089Z,72628.34
2022-08-31T05:51:24.781Z,72628.34
2022-08-31T05:51:59.986Z,72630.34
2022-08-31T05:52:32.842Z,72634.31
2022-08-31T05:53:05.284Z,72634.31
2022-08-31T05:53:40.310Z,72628.34
2022-08-31T05:54:12.683Z,72632.31
2022-08-31T05:54:48.731Z,72626.34
2022-08-31T05:55:21.211Z,72634.31
2022-08-31T05:55:59.307Z,72636.31
2022-08-31T05:56:34.701Z,72630.34
2022-08-31T05:57:07.879Z,72626.34
2022-08-31T05:57:40.604Z,72622.34
2022-08-31T05:58:18.189Z,72620.34
2022-08-31T05:58:50.526Z,72620.34
2022-08-31T05:59:23.762Z,72616.38
2022-08-31T05:59:58.881Z,72622.34
2022-08-31T06:00:32.397Z,72622.34
2022-08-31T06:01:30.617Z,72622.34
2022-08-31T06:02:06.255Z,72634.31
2022-08-31T06:02:42.497Z,72634.31
2022-08-31T06:03:17.742Z,72626.34
2022-08-31T06:03:51.771Z,72628.34
2022-08-31T06:04:26.893Z,72632.31
2022-08-31T06:04:59.464Z,72630.34
2022-08-31T06:05:32.070Z,72634.31
2022-08-31T06:06:08.710Z,72632.31
2022-08-31T06:06:41.234Z,72634.31
2022-08-31T06:07:17.177Z,72632.31
2022-08-31T06:07:58.817Z,72638.31
2022-08-31T06:08:33.879Z,72638.31
2022-08-31T06:09:07.762Z,72638.31
2022-08-31T06:09:42.880Z,72634.31
2022-08-31T06:10:16.912Z,72640.31
2022-08-31T06:10:50.150Z,72638.31
2022-08-31T06:11:30.437Z,72638.31
2022-08-31T06:12:03.626Z,72642.31
2022-08-31T06:12:37.711Z,72638.31
2022-08-31T06:13:14.143Z,72646.31
2022-08-31T06:13:51.359Z,72638.31
2022-08-31T06:14:27.114Z,72642.31
2022-08-31T06:15:01.668Z,72650.28
2022-08-31T06:15:34.134Z,72634.31
2022-08-31T06:16:14.789Z,72628.34
2022-08-31T06:16:47.347Z,72636.31
2022-08-31T06:17:25.033Z,72646.31
2022-08-31T06:17:57.986Z,72638.31
2022-08-31T06:18:36.325Z,72646.31
2022-08-31T06:19:08.769Z,72648.28
2022-08-31T06:19:42.328Z,72650.28
2022-08-31T06:20:18.495Z,72644.31
2022-08-31T06:21:01.987Z,72646.31
2022-08-31T06:21:38.694Z,72648.28
2022-08-31T06:22:23.582Z,72642.31
2022-08-31T06:23:00.213Z,72648.28
2022-08-31T06:23:43.470Z,72646.31
2022-08-31T06:24:18.517Z,72646.31
2022-08-31T06:24:50.938Z,72648.28
2022-08-31T06:25:24.858Z,72650.28
2022-08-31T06:26:08.230Z,72654.28
2022-08-31T06:26:40.659Z,72652.28
2022-08-31T06:27:27.640Z,72650.28
2022-08-31T06:28:01.793Z,72650.28
2022-08-31T06:28:34.568Z,72654.28
2022-08-31T06:29:12.126Z,72656.28
2022-08-31T06:29:45.890Z,72654.28
2022-08-31T06:30:22.186Z,72652.28
2022-08-31T06:30:58.809Z,72658.28
2022-08-31T06:31:34.001Z,72658.28
2022-08-31T06:32:11.159Z,72662.28
2022-08-31T06:32:47.206Z,72650.28
2022-08-31T06:33:21.652Z,72656.28
2022-08-31T06:34:09.634Z,72658.28
2022-08-31T06:35:05.370Z,72654.28
2022-08-31T06:35:58.810Z,72662.28
2022-08-31T06:36:50.225Z,72660.28
2022-08-31T06:37:44.013Z,72654.28
2022-08-31T06:38:32.904Z,72654.28
2022-08-31T06:39:26.623Z,72646.31
2022-08-31T06:40:16.672Z,72650.28
2022-08-31T06:41:17.521Z,72646.31
2022-08-31T06:42:16.189Z,72652.28
2022-08-31T06:43:15.397Z,72650.28
2022-08-31T06:44:03.374Z,72648.28
2022-08-31T06:45:06.638Z,72648.28
2022-08-31T06:46:02.446Z,72646.31
2022-08-31T06:46:57.620Z,72656.28
2022-08-31T06:47:32.242Z,72652.28
2022-08-31T06:48:04.877Z,72648.28
2022-08-31T06:48:39.910Z,72648.28
2022-08-31T06:49:13.010Z,72646.31
2022-08-31T06:49:47.999Z,72650.28
2022-08-31T06:50:20.662Z,72652.28
2022-08-31T06:50:56.746Z,72650.28
2022-08-31T06:51:36.631Z,72650.28
2022-08-31T06:52:09.137Z,72650.28
2022-08-31T06:52:45.765Z,72654.28
2022-08-31T06:53:29.834Z,72654.28
2022-08-31T06:54:31.123Z,72654.28
2022-08-31T06:55:22.031Z,72654.28
2022-08-31T06:56:20.676Z,72654.28
2022-08-31T06:57:19.830Z,72662.28
2022-08-31T06:58:30.499Z,72658.28
2022-08-31T06:59:26.465Z,72658.28
2022-08-31T07:00:26.259Z,72654.28
2022-08-31T07:01:16.577Z,72664.25
2022-08-31T07:02:05.754Z,72658.28
2022-08-31T07:02:42.775Z,72660.28
2022-08-31T07:03:24.227Z,72662.28
2022-08-31T07:03:59.342Z,72658.28
2022-08-31T07:04:35.929Z,72662.28
2022-08-31T07:05:12.604Z,72662.28
2022-08-31T07:05:48.088Z,72662.28
2022-08-31T07:06:26.192Z,72666.25
2022-08-31T07:06:58.805Z,72662.28
2022-08-31T07:07:34.440Z,72662.28
2022-08-31T07:08:07.805Z,72666.25
2022-08-31T07:08:44.718Z,72664.25
2022-08-31T07:09:18.407Z,72666.25
2022-08-31T07:09:53.594Z,72668.25
2022-08-31T07:10:26.113Z,72664.25
2022-08-31T07:10:58.711Z,72662.28
2022-08-31T07:11:38.169Z,72664.25
2022-08-31T07:12:13.839Z,72662.28
2022-08-31T07:12:48.923Z,72664.25
2022-08-31T07:13:21.435Z,72664.25